sensor_id;sensor_type;location;lat;lon;timestamp;temperature;humidity
12769;DHT22;6448;48.916;8.990;2024-01-10T00:00:17;2.10;47.80
12769;DHT22;6448;48.916;8.990;2024-01-10T00:01:19;2.00;47.80
12769;DHT22;6448;48.916;8.990;2024-01-10T00:02:21;2.10;47.80
12769;DHT22;6448;48.916;8.990;2024-01-10T00:03:23;2.10;47.80
12769;DHT22;6448;48.916;8.990;2024-01-10T00:04:24;2.10;47.90
12769;DHT22;6448;48.916;8.990;2024-01-10T00:05:25;2.10;47.90
12769;DHT22;6448;48.916;8.990;2024-01-10T00:06:26;2.10;47.90
12769;DHT22;6448;48.916;8.990;2024-01-10T00:07:29;2.10;47.90
12769;DHT22;6448;48.916;8.990;2024-01-10T00:08:30;2.10;47.90
12769;DHT22;6448;48.916;8.990;2024-01-10T00:09:32;2.10;47.90
12769;DHT22;6448;48.916;8.990;2024-01-10T00:10:32;2.10;47.90
12769;DHT22;6448;48.916;8.990;2024-01-10T00:11:33;2.10;47.90
12769;DHT22;6448;48.916;8.990;2024-01-10T00:12:35;2.10;47.80
12769;DHT22;6448;48.916;8.990;2024-01-10T00:13:37;2.10;47.80
12769;DHT22;6448;48.916;8.990;2024-01-10T00:14:38;2.10;47.80
12769;DHT22;6448;48.916;8.990;2024-01-10T00:15:39;2.10;47.90
12769;DHT22;6448;48.916;8.990;2024-01-10T00:16:41;2.10;47.90
12769;DHT22;6448;48.916;8.990;2024-01-10T00:17:42;2.10;47.90
12769;DHT22;6448;48.916;8.990;2024-01-10T00:18:42;2.10;47.90
12769;DHT22;6448;48.916;8.990;2024-01-10T00:19:44;2.10;47.90
12769;DHT22;6448;48.916;8.990;2024-01-10T00:20:45;2.10;47.90
12769;DHT22;6448;48.916;8.990;2024-01-10T00:21:47;2.10;47.90
12769;DHT22;6448;48.916;8.990;2024-01-10T00:22:50;2.10;47.90
12769;DHT22;6448;48.916;8.990;2024-01-10T00:23:50;2.10;48.00
12769;DHT22;6448;48.916;8.990;2024-01-10T00:24:52;2.10;48.00
12769;DHT22;6448;48.916;8.990;2024-01-10T00:25:53;2.10;48.00
12769;DHT22;6448;48.916;8.990;2024-01-10T00:26:54;2.10;48.00
12769;DHT22;6448;48.916;8.990;2024-01-10T00:27:55;2.10;48.10
12769;DHT22;6448;48.916;8.990;2024-01-10T00:28:56;2.10;48.10
12769;DHT22;6448;48.916;8.990;2024-01-10T00:29:58;2.10;48.10
12769;DHT22;6448;48.916;8.990;2024-01-10T00:30:59;2.10;48.10
12769;DHT22;6448;48.916;8.990;2024-01-10T00:32:00;2.10;48.20
12769;DHT22;6448;48.916;8.990;2024-01-10T00:33:01;2.10;48.20
12769;DHT22;6448;48.916;8.990;2024-01-10T00:34:03;2.30;48.30
12769;DHT22;6448;48.916;8.990;2024-01-10T00:35:04;2.10;48.30
12769;DHT22;6448;48.916;8.990;2024-01-10T00:36:06;2.10;48.40
12769;DHT22;6448;48.916;8.990;2024-01-10T00:37:07;2.20;48.40
12769;DHT22;6448;48.916;8.990;2024-01-10T00:38:10;2.10;48.50
12769;DHT22;6448;48.916;8.990;2024-01-10T00:39:11;2.10;48.60
12769;DHT22;6448;48.916;8.990;2024-01-10T00:40:13;2.10;48.70
12769;DHT22;6448;48.916;8.990;2024-01-10T00:41:13;2.10;48.70
12769;DHT22;6448;48.916;8.990;2024-01-10T00:42:15;2.10;48.70
12769;DHT22;6448;48.916;8.990;2024-01-10T00:43:16;2.10;48.70
12769;DHT22;6448;48.916;8.990;2024-01-10T00:44:17;2.10;48.80
12769;DHT22;6448;48.916;8.990;2024-01-10T00:45:18;2.10;48.80
12769;DHT22;6448;48.916;8.990;2024-01-10T00:46:20;2.10;48.80
12769;DHT22;6448;48.916;8.990;2024-01-10T00:47:21;2.10;48.80
12769;DHT22;6448;48.916;8.990;2024-01-10T00:48:23;2.10;48.80
12769;DHT22;6448;48.916;8.990;2024-01-10T00:49:24;2.10;48.80
12769;DHT22;6448;48.916;8.990;2024-01-10T00:50:25;2.10;48.80
12769;DHT22;6448;48.916;8.990;2024-01-10T00:51:26;2.20;48.90
12769;DHT22;6448;48.916;8.990;2024-01-10T00:52:28;2.10;48.80
12769;DHT22;6448;48.916;8.990;2024-01-10T00:53:30;2.10;48.80
12769;DHT22;6448;48.916;8.990;2024-01-10T00:54:31;2.10;48.80
12769;DHT22;6448;48.916;8.990;2024-01-10T00:55:32;2.20;48.90
12769;DHT22;6448;48.916;8.990;2024-01-10T00:56:34;2.20;48.90
12769;DHT22;6448;48.916;8.990;2024-01-10T00:57:35;2.20;49.00
12769;DHT22;6448;48.916;8.990;2024-01-10T00:58:35;2.20;49.10
12769;DHT22;6448;48.916;8.990;2024-01-10T00:59:37;2.20;49.10
12769;DHT22;6448;48.916;8.990;2024-01-10T01:00:38;2.20;49.10
12769;DHT22;6448;48.916;8.990;2024-01-10T01:01:39;2.20;49.20
12769;DHT22;6448;48.916;8.990;2024-01-10T01:02:40;2.20;49.10
12769;DHT22;6448;48.916;8.990;2024-01-10T01:03:42;2.20;49.10
12769;DHT22;6448;48.916;8.990;2024-01-10T01:04:43;2.10;49.10
12769;DHT22;6448;48.916;8.990;2024-01-10T01:05:44;2.20;49.20
12769;DHT22;6448;48.916;8.990;2024-01-10T01:06:45;2.20;49.20
12769;DHT22;6448;48.916;8.990;2024-01-10T01:07:47;2.20;49.30
12769;DHT22;6448;48.916;8.990;2024-01-10T01:08:49;2.20;49.20
12769;DHT22;6448;48.916;8.990;2024-01-10T01:09:50;2.20;49.30
12769;DHT22;6448;48.916;8.990;2024-01-10T01:10:51;2.20;49.30
12769;DHT22;6448;48.916;8.990;2024-01-10T01:11:52;2.20;49.30
12769;DHT22;6448;48.916;8.990;2024-01-10T01:12:54;2.20;49.30
12769;DHT22;6448;48.916;8.990;2024-01-10T01:13:54;2.20;49.30
12769;DHT22;6448;48.916;8.990;2024-01-10T01:14:56;2.20;49.20
12769;DHT22;6448;48.916;8.990;2024-01-10T01:15:57;2.20;49.20
12769;DHT22;6448;48.916;8.990;2024-01-10T01:16:59;2.20;49.20
12769;DHT22;6448;48.916;8.990;2024-01-10T01:18:00;2.20;49.20
12769;DHT22;6448;48.916;8.990;2024-01-10T01:19:02;2.20;49.20
12769;DHT22;6448;48.916;8.990;2024-01-10T01:20:03;2.20;49.20
12769;DHT22;6448;48.916;8.990;2024-01-10T01:21:05;2.20;49.20
12769;DHT22;6448;48.916;8.990;2024-01-10T01:22:06;2.20;49.30
12769;DHT22;6448;48.916;8.990;2024-01-10T01:23:07;2.20;49.20
12769;DHT22;6448;48.916;8.990;2024-01-10T01:24:09;2.20;49.20
12769;DHT22;6448;48.916;8.990;2024-01-10T01:25:12;2.20;49.20
12769;DHT22;6448;48.916;8.990;2024-01-10T01:26:12;2.20;49.10
12769;DHT22;6448;48.916;8.990;2024-01-10T01:27:14;2.20;49.10
12769;DHT22;6448;48.916;8.990;2024-01-10T01:28:16;2.20;49.10
12769;DHT22;6448;48.916;8.990;2024-01-10T01:29:17;2.20;49.10
12769;DHT22;6448;48.916;8.990;2024-01-10T01:30:18;2.20;49.10
12769;DHT22;6448;48.916;8.990;2024-01-10T01:31:22;2.20;49.20
12769;DHT22;6448;48.916;8.990;2024-01-10T01:32:23;2.20;49.20
12769;DHT22;6448;48.916;8.990;2024-01-10T01:33:24;2.20;49.20
12769;DHT22;6448;48.916;8.990;2024-01-10T01:34:25;2.20;49.20
12769;DHT22;6448;48.916;8.990;2024-01-10T01:35:26;2.20;49.30
12769;DHT22;6448;48.916;8.990;2024-01-10T01:36:28;2.20;49.30
12769;DHT22;6448;48.916;8.990;2024-01-10T01:37:29;2.20;49.90
12769;DHT22;6448;48.916;8.990;2024-01-10T01:38:30;2.20;49.30
12769;DHT22;6448;48.916;8.990;2024-01-10T01:39:32;2.20;49.40
12769;DHT22;6448;48.916;8.990;2024-01-10T01:40:34;2.20;49.40
12769;DHT22;6448;48.916;8.990;2024-01-10T01:41:34;2.20;49.40
12769;DHT22;6448;48.916;8.990;2024-01-10T01:42:36;2.20;49.50
12769;DHT22;6448;48.916;8.990;2024-01-10T01:43:37;2.20;49.60
12769;DHT22;6448;48.916;8.990;2024-01-10T01:44:38;2.20;49.70
12769;DHT22;6448;48.916;8.990;2024-01-10T01:45:39;2.20;49.80
12769;DHT22;6448;48.916;8.990;2024-01-10T01:46:41;2.20;49.80
12769;DHT22;6448;48.916;8.990;2024-01-10T01:47:42;2.20;49.70
12769;DHT22;6448;48.916;8.990;2024-01-10T01:48:44;2.20;49.60
12769;DHT22;6448;48.916;8.990;2024-01-10T01:49:46;2.20;49.70
12769;DHT22;6448;48.916;8.990;2024-01-10T01:50:50;2.20;49.60
12769;DHT22;6448;48.916;8.990;2024-01-10T01:51:52;2.20;49.70
12769;DHT22;6448;48.916;8.990;2024-01-10T01:52:53;2.20;49.70
12769;DHT22;6448;48.916;8.990;2024-01-10T01:53:54;2.20;49.70
12769;DHT22;6448;48.916;8.990;2024-01-10T01:54:58;2.20;49.80
12769;DHT22;6448;48.916;8.990;2024-01-10T01:56:01;2.20;49.80
12769;DHT22;6448;48.916;8.990;2024-01-10T01:57:04;2.20;49.80
12769;DHT22;6448;48.916;8.990;2024-01-10T01:58:05;2.20;49.80
12769;DHT22;6448;48.916;8.990;2024-01-10T01:59:08;2.20;49.80
12769;DHT22;6448;48.916;8.990;2024-01-10T02:00:10;2.20;49.80
12769;DHT22;6448;48.916;8.990;2024-01-10T02:01:12;2.20;49.90
12769;DHT22;6448;48.916;8.990;2024-01-10T02:02:13;2.20;49.90
12769;DHT22;6448;48.916;8.990;2024-01-10T02:03:16;2.20;49.90
12769;DHT22;6448;48.916;8.990;2024-01-10T02:04:16;2.20;49.80
12769;DHT22;6448;48.916;8.990;2024-01-10T02:05:19;2.30;49.90
12769;DHT22;6448;48.916;8.990;2024-01-10T02:06:20;2.20;49.90
12769;DHT22;6448;48.916;8.990;2024-01-10T02:07:22;2.20;49.80
12769;DHT22;6448;48.916;8.990;2024-01-10T02:08:23;2.30;49.90
12769;DHT22;6448;48.916;8.990;2024-01-10T02:09:25;2.30;49.80
12769;DHT22;6448;48.916;8.990;2024-01-10T02:10:34;2.30;49.90
12769;DHT22;6448;48.916;8.990;2024-01-10T02:11:40;2.30;49.90
12769;DHT22;6448;48.916;8.990;2024-01-10T02:12:41;2.30;50.00
12769;DHT22;6448;48.916;8.990;2024-01-10T02:13:42;2.30;50.10
12769;DHT22;6448;48.916;8.990;2024-01-10T02:14:43;2.30;50.10
12769;DHT22;6448;48.916;8.990;2024-01-10T02:15:45;2.30;50.80
12769;DHT22;6448;48.916;8.990;2024-01-10T02:16:46;2.30;50.20
12769;DHT22;6448;48.916;8.990;2024-01-10T02:17:47;2.40;50.30
12769;DHT22;6448;48.916;8.990;2024-01-10T02:18:48;2.30;50.20
12769;DHT22;6448;48.916;8.990;2024-01-10T02:19:50;2.40;50.30
12769;DHT22;6448;48.916;8.990;2024-01-10T02:21:08;2.30;50.20
12769;DHT22;6448;48.916;8.990;2024-01-10T02:22:09;2.40;50.10
12769;DHT22;6448;48.916;8.990;2024-01-10T02:23:11;2.40;50.10
12769;DHT22;6448;48.916;8.990;2024-01-10T02:24:12;2.30;49.90
12769;DHT22;6448;48.916;8.990;2024-01-10T02:25:15;2.40;49.80
12769;DHT22;6448;48.916;8.990;2024-01-10T02:26:16;2.30;49.80
12769;DHT22;6448;48.916;8.990;2024-01-10T02:27:18;2.40;49.80
12769;DHT22;6448;48.916;8.990;2024-01-10T02:28:19;2.40;49.70
12769;DHT22;6448;48.916;8.990;2024-01-10T02:29:20;2.40;49.60
12769;DHT22;6448;48.916;8.990;2024-01-10T02:30:21;2.40;49.60
12769;DHT22;6448;48.916;8.990;2024-01-10T02:31:23;2.40;49.70
12769;DHT22;6448;48.916;8.990;2024-01-10T02:32:24;2.40;49.60
12769;DHT22;6448;48.916;8.990;2024-01-10T02:33:26;2.40;49.50
12769;DHT22;6448;48.916;8.990;2024-01-10T02:34:29;2.50;49.50
12769;DHT22;6448;48.916;8.990;2024-01-10T02:35:31;2.40;49.40
12769;DHT22;6448;48.916;8.990;2024-01-10T02:36:33;2.40;49.40
12769;DHT22;6448;48.916;8.990;2024-01-10T02:37:35;2.50;49.40
12769;DHT22;6448;48.916;8.990;2024-01-10T02:38:35;2.40;49.30
12769;DHT22;6448;48.916;8.990;2024-01-10T02:39:37;2.50;49.30
12769;DHT22;6448;48.916;8.990;2024-01-10T02:40:39;2.50;49.20
12769;DHT22;6448;48.916;8.990;2024-01-10T02:41:41;2.50;49.20
12769;DHT22;6448;48.916;8.990;2024-01-10T02:42:42;2.50;49.20
12769;DHT22;6448;48.916;8.990;2024-01-10T02:43:43;2.50;49.20
12769;DHT22;6448;48.916;8.990;2024-01-10T02:44:44;2.50;49.10
12769;DHT22;6448;48.916;8.990;2024-01-10T02:45:46;2.50;49.10
12769;DHT22;6448;48.916;8.990;2024-01-10T02:46:47;2.50;49.10
12769;DHT22;6448;48.916;8.990;2024-01-10T02:47:48;2.50;49.10
12769;DHT22;6448;48.916;8.990;2024-01-10T02:48:49;2.50;49.00
12769;DHT22;6448;48.916;8.990;2024-01-10T02:49:50;2.50;49.00
12769;DHT22;6448;48.916;8.990;2024-01-10T02:50:52;2.50;49.00
12769;DHT22;6448;48.916;8.990;2024-01-10T02:51:55;2.50;49.00
12769;DHT22;6448;48.916;8.990;2024-01-10T02:52:56;2.50;49.00
12769;DHT22;6448;48.916;8.990;2024-01-10T02:53:57;2.50;48.90
12769;DHT22;6448;48.916;8.990;2024-01-10T02:54:59;2.60;49.00
12769;DHT22;6448;48.916;8.990;2024-01-10T02:56:01;2.60;48.90
12769;DHT22;6448;48.916;8.990;2024-01-10T02:57:02;2.60;48.90
12769;DHT22;6448;48.916;8.990;2024-01-10T02:58:03;2.60;48.90
12769;DHT22;6448;48.916;8.990;2024-01-10T02:59:05;2.60;48.90
12769;DHT22;6448;48.916;8.990;2024-01-10T03:00:07;2.60;48.80
12769;DHT22;6448;48.916;8.990;2024-01-10T03:01:09;2.50;48.70
12769;DHT22;6448;48.916;8.990;2024-01-10T03:02:10;2.60;48.70
12769;DHT22;6448;48.916;8.990;2024-01-10T03:03:12;2.60;48.60
12769;DHT22;6448;48.916;8.990;2024-01-10T03:04:13;2.60;48.50
12769;DHT22;6448;48.916;8.990;2024-01-10T03:05:13;2.60;48.50
12769;DHT22;6448;48.916;8.990;2024-01-10T03:06:15;2.60;48.50
12769;DHT22;6448;48.916;8.990;2024-01-10T03:07:16;2.60;48.50
12769;DHT22;6448;48.916;8.990;2024-01-10T03:08:17;2.60;48.50
12769;DHT22;6448;48.916;8.990;2024-01-10T03:09:18;2.60;48.50
12769;DHT22;6448;48.916;8.990;2024-01-10T03:10:20;2.60;48.50
12769;DHT22;6448;48.916;8.990;2024-01-10T03:11:22;2.60;48.50
12769;DHT22;6448;48.916;8.990;2024-01-10T03:12:24;2.60;48.50
12769;DHT22;6448;48.916;8.990;2024-01-10T03:13:24;2.60;48.40
12769;DHT22;6448;48.916;8.990;2024-01-10T03:14:26;2.60;48.40
12769;DHT22;6448;48.916;8.990;2024-01-10T03:15:27;2.60;48.40
12769;DHT22;6448;48.916;8.990;2024-01-10T03:16:28;2.60;48.40
12769;DHT22;6448;48.916;8.990;2024-01-10T03:17:29;2.60;49.00
12769;DHT22;6448;48.916;8.990;2024-01-10T03:18:30;2.60;48.40
12769;DHT22;6448;48.916;8.990;2024-01-10T03:19:32;2.60;48.40
12769;DHT22;6448;48.916;8.990;2024-01-10T03:20:33;2.60;48.40
12769;DHT22;6448;48.916;8.990;2024-01-10T03:21:34;2.60;48.40
12769;DHT22;6448;48.916;8.990;2024-01-10T03:22:35;2.60;48.40
12769;DHT22;6448;48.916;8.990;2024-01-10T03:23:37;2.60;48.30
12769;DHT22;6448;48.916;8.990;2024-01-10T03:24:38;2.60;48.30
12769;DHT22;6448;48.916;8.990;2024-01-10T03:25:40;2.60;48.30
12769;DHT22;6448;48.916;8.990;2024-01-10T03:26:42;2.60;48.30
12769;DHT22;6448;48.916;8.990;2024-01-10T03:27:44;2.60;48.20
12769;DHT22;6448;48.916;8.990;2024-01-10T03:28:45;2.60;48.20
12769;DHT22;6448;48.916;8.990;2024-01-10T03:29:47;2.70;48.30
12769;DHT22;6448;48.916;8.990;2024-01-10T03:30:48;2.60;48.30
12769;DHT22;6448;48.916;8.990;2024-01-10T03:31:49;2.60;48.30
12769;DHT22;6448;48.916;8.990;2024-01-10T03:32:52;2.60;48.30
12769;DHT22;6448;48.916;8.990;2024-01-10T03:33:53;2.60;48.30
12769;DHT22;6448;48.916;8.990;2024-01-10T03:34:54;2.60;48.40
12769;DHT22;6448;48.916;8.990;2024-01-10T03:35:55;2.60;48.40
12769;DHT22;6448;48.916;8.990;2024-01-10T03:36:56;2.60;48.40
12769;DHT22;6448;48.916;8.990;2024-01-10T03:37:58;2.60;48.40
12769;DHT22;6448;48.916;8.990;2024-01-10T03:38:59;2.60;48.40
12769;DHT22;6448;48.916;8.990;2024-01-10T03:40:01;2.60;48.40
12769;DHT22;6448;48.916;8.990;2024-01-10T03:41:02;2.60;48.40
12769;DHT22;6448;48.916;8.990;2024-01-10T03:42:05;2.60;48.50
12769;DHT22;6448;48.916;8.990;2024-01-10T03:43:06;2.60;48.50
12769;DHT22;6448;48.916;8.990;2024-01-10T03:44:10;2.60;48.50
12769;DHT22;6448;48.916;8.990;2024-01-10T03:45:11;2.60;48.50
12769;DHT22;6448;48.916;8.990;2024-01-10T03:46:13;2.60;48.50
12769;DHT22;6448;48.916;8.990;2024-01-10T03:47:14;2.60;48.50
12769;DHT22;6448;48.916;8.990;2024-01-10T03:48:15;2.50;48.50
12769;DHT22;6448;48.916;8.990;2024-01-10T03:49:17;2.60;48.60
12769;DHT22;6448;48.916;8.990;2024-01-10T03:50:18;2.50;48.60
12769;DHT22;6448;48.916;8.990;2024-01-10T03:51:20;2.50;48.70
12769;DHT22;6448;48.916;8.990;2024-01-10T03:52:21;2.50;48.60
12769;DHT22;6448;48.916;8.990;2024-01-10T03:53:24;2.50;48.70
12769;DHT22;6448;48.916;8.990;2024-01-10T03:54:24;2.50;48.60
12769;DHT22;6448;48.916;8.990;2024-01-10T03:55:26;2.50;48.60
12769;DHT22;6448;48.916;8.990;2024-01-10T03:56:27;2.50;48.70
12769;DHT22;6448;48.916;8.990;2024-01-10T03:57:30;2.50;48.70
12769;DHT22;6448;48.916;8.990;2024-01-10T03:58:31;2.50;48.70
12769;DHT22;6448;48.916;8.990;2024-01-10T03:59:31;2.50;48.70
12769;DHT22;6448;48.916;8.990;2024-01-10T04:00:33;2.50;48.70
12769;DHT22;6448;48.916;8.990;2024-01-10T04:01:34;2.50;48.70
12769;DHT22;6448;48.916;8.990;2024-01-10T04:02:39;2.50;48.70
12769;DHT22;6448;48.916;8.990;2024-01-10T04:03:40;2.50;48.70
12769;DHT22;6448;48.916;8.990;2024-01-10T04:04:42;2.50;48.80
12769;DHT22;6448;48.916;8.990;2024-01-10T04:05:43;2.50;48.80
12769;DHT22;6448;48.916;8.990;2024-01-10T04:06:45;2.50;48.80
12769;DHT22;6448;48.916;8.990;2024-01-10T04:07:46;2.50;48.80
12769;DHT22;6448;48.916;8.990;2024-01-10T04:08:48;2.50;48.90
12769;DHT22;6448;48.916;8.990;2024-01-10T04:09:49;2.50;48.90
12769;DHT22;6448;48.916;8.990;2024-01-10T04:10:50;2.50;48.90
12769;DHT22;6448;48.916;8.990;2024-01-10T04:11:51;2.50;48.90
12769;DHT22;6448;48.916;8.990;2024-01-10T04:12:54;2.50;48.90
12769;DHT22;6448;48.916;8.990;2024-01-10T04:13:55;2.50;49.00
12769;DHT22;6448;48.916;8.990;2024-01-10T04:14:57;2.50;49.00
12769;DHT22;6448;48.916;8.990;2024-01-10T04:15:58;2.50;48.90
12769;DHT22;6448;48.916;8.990;2024-01-10T04:16:59;2.50;48.90
12769;DHT22;6448;48.916;8.990;2024-01-10T04:18:01;2.50;48.90
12769;DHT22;6448;48.916;8.990;2024-01-10T04:19:03;2.50;48.90
12769;DHT22;6448;48.916;8.990;2024-01-10T04:20:05;2.50;48.90
12769;DHT22;6448;48.916;8.990;2024-01-10T04:21:07;2.60;48.90
12769;DHT22;6448;48.916;8.990;2024-01-10T04:22:08;2.50;48.90
12769;DHT22;6448;48.916;8.990;2024-01-10T04:23:10;2.50;48.90
12769;DHT22;6448;48.916;8.990;2024-01-10T04:24:11;2.60;49.00
12769;DHT22;6448;48.916;8.990;2024-01-10T04:25:13;2.60;49.00
12769;DHT22;6448;48.916;8.990;2024-01-10T04:26:13;2.50;48.90
12769;DHT22;6448;48.916;8.990;2024-01-10T04:27:14;2.60;49.00
12769;DHT22;6448;48.916;8.990;2024-01-10T04:28:17;2.50;49.00
12769;DHT22;6448;48.916;8.990;2024-01-10T04:29:18;2.50;49.00
12769;DHT22;6448;48.916;8.990;2024-01-10T04:30:19;2.60;49.00
12769;DHT22;6448;48.916;8.990;2024-01-10T04:31:21;2.50;48.90
12769;DHT22;6448;48.916;8.990;2024-01-10T04:32:22;2.60;49.00
12769;DHT22;6448;48.916;8.990;2024-01-10T04:33:23;2.60;48.90
12769;DHT22;6448;48.916;8.990;2024-01-10T04:34:24;2.60;48.90
12769;DHT22;6448;48.916;8.990;2024-01-10T04:35:25;2.60;48.90
12769;DHT22;6448;48.916;8.990;2024-01-10T04:36:27;2.60;48.90
12769;DHT22;6448;48.916;8.990;2024-01-10T04:37:28;2.60;48.90
12769;DHT22;6448;48.916;8.990;2024-01-10T04:38:29;2.60;48.90
12769;DHT22;6448;48.916;8.990;2024-01-10T04:39:31;2.60;49.20
12769;DHT22;6448;48.916;8.990;2024-01-10T04:40:32;2.60;48.90
12769;DHT22;6448;48.916;8.990;2024-01-10T04:41:34;2.60;48.90
12769;DHT22;6448;48.916;8.990;2024-01-10T04:42:34;2.60;48.90
12769;DHT22;6448;48.916;8.990;2024-01-10T04:43:37;2.60;48.80
12769;DHT22;6448;48.916;8.990;2024-01-10T04:44:38;2.60;48.80
12769;DHT22;6448;48.916;8.990;2024-01-10T04:45:39;2.60;48.80
12769;DHT22;6448;48.916;8.990;2024-01-10T04:46:41;2.60;48.90
12769;DHT22;6448;48.916;8.990;2024-01-10T04:47:42;2.60;48.90
12769;DHT22;6448;48.916;8.990;2024-01-10T04:48:45;2.60;48.90
12769;DHT22;6448;48.916;8.990;2024-01-10T04:49:46;2.60;48.90
12769;DHT22;6448;48.916;8.990;2024-01-10T04:50:47;2.60;48.90
12769;DHT22;6448;48.916;8.990;2024-01-10T04:51:49;2.60;48.90
12769;DHT22;6448;48.916;8.990;2024-01-10T04:52:51;2.60;49.00
12769;DHT22;6448;48.916;8.990;2024-01-10T04:53:52;2.60;49.00
12769;DHT22;6448;48.916;8.990;2024-01-10T04:54:54;2.70;49.00
12769;DHT22;6448;48.916;8.990;2024-01-10T04:55:54;2.60;49.00
12769;DHT22;6448;48.916;8.990;2024-01-10T04:56:56;2.70;49.10
12769;DHT22;6448;48.916;8.990;2024-01-10T04:57:57;2.60;49.10
12769;DHT22;6448;48.916;8.990;2024-01-10T04:59:01;2.60;49.10
12769;DHT22;6448;48.916;8.990;2024-01-10T05:00:02;2.70;49.10
12769;DHT22;6448;48.916;8.990;2024-01-10T05:01:05;2.70;49.10
12769;DHT22;6448;48.916;8.990;2024-01-10T05:02:06;2.70;49.10
12769;DHT22;6448;48.916;8.990;2024-01-10T05:03:08;2.70;49.10
12769;DHT22;6448;48.916;8.990;2024-01-10T05:04:09;2.70;49.00
12769;DHT22;6448;48.916;8.990;2024-01-10T05:05:10;2.70;49.00
12769;DHT22;6448;48.916;8.990;2024-01-10T05:06:11;2.70;49.10
12769;DHT22;6448;48.916;8.990;2024-01-10T05:07:13;2.70;49.00
12769;DHT22;6448;48.916;8.990;2024-01-10T05:08:14;2.70;49.00
12769;DHT22;6448;48.916;8.990;2024-01-10T05:09:15;2.70;49.00
12769;DHT22;6448;48.916;8.990;2024-01-10T05:10:16;2.70;49.00
12769;DHT22;6448;48.916;8.990;2024-01-10T05:11:18;2.70;49.10
12769;DHT22;6448;48.916;8.990;2024-01-10T05:12:19;2.70;49.00
12769;DHT22;6448;48.916;8.990;2024-01-10T05:13:19;2.70;49.00
12769;DHT22;6448;48.916;8.990;2024-01-10T05:14:23;2.70;49.00
12769;DHT22;6448;48.916;8.990;2024-01-10T05:15:23;2.70;49.00
12769;DHT22;6448;48.916;8.990;2024-01-10T05:16:25;2.80;49.00
12769;DHT22;6448;48.916;8.990;2024-01-10T05:17:26;2.70;48.90
12769;DHT22;6448;48.916;8.990;2024-01-10T05:18:28;2.70;49.00
12769;DHT22;6448;48.916;8.990;2024-01-10T05:19:28;2.80;49.10
12769;DHT22;6448;48.916;8.990;2024-01-10T05:20:30;2.80;49.10
12769;DHT22;6448;48.916;8.990;2024-01-10T05:21:32;2.80;49.10
12769;DHT22;6448;48.916;8.990;2024-01-10T05:22:34;2.80;49.10
12769;DHT22;6448;48.916;8.990;2024-01-10T05:23:36;2.80;49.10
12769;DHT22;6448;48.916;8.990;2024-01-10T05:24:39;2.80;49.10
12769;DHT22;6448;48.916;8.990;2024-01-10T05:25:40;2.80;49.00
12769;DHT22;6448;48.916;8.990;2024-01-10T05:26:41;2.80;49.00
12769;DHT22;6448;48.916;8.990;2024-01-10T05:27:42;2.80;49.00
12769;DHT22;6448;48.916;8.990;2024-01-10T05:28:44;2.80;48.90
12769;DHT22;6448;48.916;8.990;2024-01-10T05:29:46;2.80;48.90
12769;DHT22;6448;48.916;8.990;2024-01-10T05:30:47;2.80;49.00
12769;DHT22;6448;48.916;8.990;2024-01-10T05:31:48;2.90;49.00
12769;DHT22;6448;48.916;8.990;2024-01-10T05:32:51;2.80;49.00
12769;DHT22;6448;48.916;8.990;2024-01-10T05:33:51;2.80;49.00
12769;DHT22;6448;48.916;8.990;2024-01-10T05:34:53;2.80;49.00
12769;DHT22;6448;48.916;8.990;2024-01-10T05:35:54;2.80;49.10
12769;DHT22;6448;48.916;8.990;2024-01-10T05:36:55;2.80;49.00
12769;DHT22;6448;48.916;8.990;2024-01-10T05:37:57;2.80;49.00
12769;DHT22;6448;48.916;8.990;2024-01-10T05:38:57;2.80;49.00
12769;DHT22;6448;48.916;8.990;2024-01-10T05:39:59;2.80;49.00
12769;DHT22;6448;48.916;8.990;2024-01-10T05:41:00;2.80;49.10
12769;DHT22;6448;48.916;8.990;2024-01-10T05:42:02;2.80;49.10
12769;DHT22;6448;48.916;8.990;2024-01-10T05:43:04;2.80;49.00
12769;DHT22;6448;48.916;8.990;2024-01-10T05:44:05;2.80;49.10
12769;DHT22;6448;48.916;8.990;2024-01-10T05:45:08;2.80;49.00
12769;DHT22;6448;48.916;8.990;2024-01-10T05:46:10;2.80;49.10
12769;DHT22;6448;48.916;8.990;2024-01-10T05:47:11;2.80;49.10
12769;DHT22;6448;48.916;8.990;2024-01-10T05:48:13;2.80;49.10
12769;DHT22;6448;48.916;8.990;2024-01-10T05:49:13;2.80;49.10
12769;DHT22;6448;48.916;8.990;2024-01-10T05:50:15;2.80;49.10
12769;DHT22;6448;48.916;8.990;2024-01-10T05:51:16;2.80;49.10
12769;DHT22;6448;48.916;8.990;2024-01-10T05:52:18;2.80;49.10
12769;DHT22;6448;48.916;8.990;2024-01-10T05:53:19;2.80;49.10
12769;DHT22;6448;48.916;8.990;2024-01-10T05:54:20;2.80;49.10
12769;DHT22;6448;48.916;8.990;2024-01-10T05:55:22;2.80;49.10
12769;DHT22;6448;48.916;8.990;2024-01-10T05:56:24;2.80;49.20
12769;DHT22;6448;48.916;8.990;2024-01-10T05:57:24;2.90;49.20
12769;DHT22;6448;48.916;8.990;2024-01-10T05:58:26;2.90;49.20
12769;DHT22;6448;48.916;8.990;2024-01-10T05:59:27;2.90;49.20
12769;DHT22;6448;48.916;8.990;2024-01-10T06:00:30;2.80;49.10
12769;DHT22;6448;48.916;8.990;2024-01-10T06:01:30;2.90;49.20
12769;DHT22;6448;48.916;8.990;2024-01-10T06:02:31;2.80;49.10
12769;DHT22;6448;48.916;8.990;2024-01-10T06:03:33;2.80;49.10
12769;DHT22;6448;48.916;8.990;2024-01-10T06:04:34;2.90;49.10
12769;DHT22;6448;48.916;8.990;2024-01-10T06:05:36;2.90;49.10
12769;DHT22;6448;48.916;8.990;2024-01-10T06:06:36;2.90;49.10
12769;DHT22;6448;48.916;8.990;2024-01-10T06:07:39;2.90;49.10
12769;DHT22;6448;48.916;8.990;2024-01-10T06:08:41;2.90;49.10
12769;DHT22;6448;48.916;8.990;2024-01-10T06:09:42;2.90;49.10
12769;DHT22;6448;48.916;8.990;2024-01-10T06:10:45;2.90;49.00
12769;DHT22;6448;48.916;8.990;2024-01-10T06:11:46;2.90;49.00
12769;DHT22;6448;48.916;8.990;2024-01-10T06:12:48;2.90;49.00
12769;DHT22;6448;48.916;8.990;2024-01-10T06:13:49;2.90;48.90
12769;DHT22;6448;48.916;8.990;2024-01-10T06:14:51;2.90;48.90
12769;DHT22;6448;48.916;8.990;2024-01-10T06:15:53;2.90;48.90
12769;DHT22;6448;48.916;8.990;2024-01-10T06:16:54;2.90;48.90
12769;DHT22;6448;48.916;8.990;2024-01-10T06:17:55;2.90;49.00
12769;DHT22;6448;48.916;8.990;2024-01-10T06:18:57;2.90;49.10
12769;DHT22;6448;48.916;8.990;2024-01-10T06:19:58;2.90;49.10
12769;DHT22;6448;48.916;8.990;2024-01-10T06:21:00;2.90;49.20
12769;DHT22;6448;48.916;8.990;2024-01-10T06:22:01;2.90;49.20
12769;DHT22;6448;48.916;8.990;2024-01-10T06:23:03;2.90;49.30
12769;DHT22;6448;48.916;8.990;2024-01-10T06:24:04;2.90;49.30
12769;DHT22;6448;48.916;8.990;2024-01-10T06:25:07;2.90;49.40
12769;DHT22;6448;48.916;8.990;2024-01-10T06:26:09;2.90;49.40
12769;DHT22;6448;48.916;8.990;2024-01-10T06:27:11;2.90;49.50
12769;DHT22;6448;48.916;8.990;2024-01-10T06:28:12;2.90;49.50
12769;DHT22;6448;48.916;8.990;2024-01-10T06:29:12;2.90;49.50
12769;DHT22;6448;48.916;8.990;2024-01-10T06:30:14;2.90;49.50
12769;DHT22;6448;48.916;8.990;2024-01-10T06:31:16;2.90;49.50
12769;DHT22;6448;48.916;8.990;2024-01-10T06:32:18;2.90;49.50
12769;DHT22;6448;48.916;8.990;2024-01-10T06:33:19;2.90;49.50
12769;DHT22;6448;48.916;8.990;2024-01-10T06:34:21;2.80;49.40
12769;DHT22;6448;48.916;8.990;2024-01-10T06:35:22;2.90;49.50
12769;DHT22;6448;48.916;8.990;2024-01-10T06:36:24;2.80;49.50
12769;DHT22;6448;48.916;8.990;2024-01-10T06:37:24;2.80;49.50
12769;DHT22;6448;48.916;8.990;2024-01-10T06:38:26;2.90;49.50
12769;DHT22;6448;48.916;8.990;2024-01-10T06:39:27;2.80;49.50
12769;DHT22;6448;48.916;8.990;2024-01-10T06:40:29;2.80;49.50
12769;DHT22;6448;48.916;8.990;2024-01-10T06:41:30;2.80;49.50